チューク諸島 の空港の天気 - METARとTAF

チューク国際空港 ( PTKK / TKK ) - ミクロネシア連邦 チューク諸島
飛行場実況気象(Metar)
観測時間08/26 04:50 +10 (08/25 18:50 UTC)
風向・風速静穏 0m/s
視程10km以上
天気現象
少しの雲 雲底高度 430m
全天の8割程度の雲 雲底高度 3660m
全天を覆う雲 雲底高度 8530m
気温27.3℃
湿度88%
気圧1009.3hPa
METARPTKK 251850Z 00000KT 15SM FEW014 BKN120 OVC280 27/25 A2980 RMK SLP093 T02730251
過去の天気等 Google飛行場航空写真 Wunderground天気予報

過去48時間のMETAR

飛行場予報(TAF)
発表時間: 8/26 03:23 +10 (8/25 17:23 UTC)
予報対象時間: 26日4時 +10 ~ 27日4時 +10
風向・風速不定 3m/s
視程10km以上
天気現象周辺でしゅう雨
少しの雲 雲底高度 490m
全天の4割程度の雲 雲底高度 1220m
全天の8割程度の雲 雲底高度 3660m
PTKK 251723Z 2518/2618 VRB05KT P6SM VCSH FEW016 SCT040 BKN120